createdAt,value
2023-07-08T00:00:40.484Z,19.44
2023-07-08T00:03:08.442Z,19.52
2023-07-08T00:05:36.131Z,19.60
2023-07-08T00:08:04.359Z,19.67
2023-07-08T00:10:31.995Z,19.72
2023-07-08T00:12:59.715Z,19.68
2023-07-08T00:15:27.747Z,19.61
2023-07-08T00:17:55.646Z,19.54
2023-07-08T00:20:23.373Z,19.47
2023-07-08T00:22:52.327Z,19.41
2023-07-08T00:25:20.735Z,19.37
2023-07-08T00:27:49.104Z,19.33
2023-07-08T00:30:18.521Z,19.29
2023-07-08T00:32:46.814Z,19.28
2023-07-08T00:35:14.433Z,19.26
2023-07-08T00:37:42.119Z,19.25
2023-07-08T00:40:10.130Z,19.23
2023-07-08T00:42:37.725Z,19.22
2023-07-08T00:45:05.444Z,19.21
2023-07-08T00:47:33.035Z,19.20
2023-07-08T00:50:00.876Z,19.17
2023-07-08T00:52:28.858Z,19.15
2023-07-08T00:54:56.842Z,19.15
2023-07-08T00:57:24.478Z,19.13
2023-07-08T00:59:52.124Z,19.11
2023-07-08T01:02:19.763Z,19.08
2023-07-08T01:04:47.391Z,19.04
2023-07-08T01:07:22.761Z,18.99
2023-07-08T01:09:50.493Z,18.94
2023-07-08T01:12:18.147Z,18.88
2023-07-08T01:14:46.123Z,18.83
2023-07-08T01:17:15.581Z,18.77
2023-07-08T01:19:43.323Z,18.72
2023-07-08T01:22:11.179Z,18.66
2023-07-08T01:24:39.592Z,18.62
2023-07-08T01:27:07.184Z,18.56
2023-07-08T01:29:35.541Z,18.51
2023-07-08T01:32:03.972Z,18.43
2023-07-08T01:34:31.725Z,18.40
2023-07-08T01:36:59.801Z,18.36
2023-07-08T01:39:27.486Z,18.30
2023-07-08T01:41:55.874Z,18.27
2023-07-08T01:44:23.752Z,18.23
2023-07-08T01:46:51.345Z,18.19
2023-07-08T01:49:18.951Z,18.15
2023-07-08T01:51:46.581Z,18.11
2023-07-08T01:54:14.631Z,18.08
2023-07-08T01:56:42.240Z,18.03
2023-07-08T01:59:10.463Z,17.98
2023-07-08T02:01:38.124Z,17.96
2023-07-08T02:04:05.745Z,17.92
2023-07-08T02:06:33.729Z,17.88
2023-07-08T02:09:01.338Z,17.85
2023-07-08T02:11:28.975Z,17.82
2023-07-08T02:13:56.654Z,17.78
2023-07-08T02:16:24.291Z,17.76
2023-07-08T02:18:52.261Z,17.72
2023-07-08T02:21:20.405Z,17.70
2023-07-08T02:23:48.045Z,17.68
2023-07-08T02:26:15.614Z,17.65
2023-07-08T02:28:43.293Z,17.61
2023-07-08T02:31:12.843Z,17.58
2023-07-08T02:33:41.818Z,17.55
2023-07-08T02:36:12.066Z,17.54
2023-07-08T02:38:40.178Z,17.52
2023-07-08T02:41:09.526Z,17.51
2023-07-08T02:43:40.965Z,17.48
2023-07-08T02:46:10.259Z,17.45
2023-07-08T02:48:41.220Z,17.41
2023-07-08T02:51:11.746Z,17.39
2023-07-08T02:53:40.147Z,17.36
2023-07-08T02:56:09.110Z,17.34
2023-07-08T02:58:37.242Z,17.31
2023-07-08T03:01:05.086Z,17.27
2023-07-08T03:03:33.091Z,17.22
2023-07-08T03:06:01.800Z,17.18
2023-07-08T03:08:29.537Z,17.17
2023-07-08T03:10:58.898Z,17.14
2023-07-08T03:13:27.539Z,17.11
2023-07-08T03:15:56.463Z,17.08
2023-07-08T03:18:25.384Z,17.05
2023-07-08T03:20:53.009Z,17.03
2023-07-08T03:23:20.777Z,17.01
2023-07-08T03:25:49.190Z,16.99
2023-07-08T03:28:16.913Z,16.95
2023-07-08T03:30:44.897Z,16.93
2023-07-08T03:33:12.536Z,16.90
2023-07-08T03:35:40.412Z,16.88
2023-07-08T03:38:08.045Z,16.88
2023-07-08T03:40:35.704Z,16.89
2023-07-08T03:43:03.670Z,16.89
2023-07-08T03:45:31.663Z,16.91
2023-07-08T03:47:59.392Z,16.94
2023-07-08T03:50:26.989Z,16.94
2023-07-08T03:52:54.583Z,16.94
2023-07-08T03:55:22.634Z,16.91
2023-07-08T03:57:50.263Z,16.87
2023-07-08T04:00:17.902Z,16.84
2023-07-08T04:02:45.555Z,16.79
2023-07-08T04:05:13.158Z,16.77
2023-07-08T04:07:41.806Z,16.76
2023-07-08T04:10:09.471Z,16.77
2023-07-08T04:12:37.078Z,16.82
2023-07-08T04:15:04.687Z,16.89
2023-07-08T04:17:32.346Z,16.96
2023-07-08T04:20:07.598Z,17.02
2023-07-08T04:22:35.233Z,17.08
2023-07-08T04:25:07.073Z,17.11
2023-07-08T04:27:34.693Z,17.14
2023-07-08T04:30:02.290Z,17.17
2023-07-08T04:32:30.152Z,17.18
2023-07-08T04:34:57.744Z,17.19
2023-07-08T04:37:25.606Z,17.21
2023-07-08T04:39:53.292Z,17.23
2023-07-08T04:42:20.920Z,17.25
2023-07-08T04:44:51.109Z,17.28
2023-07-08T04:47:21.337Z,17.31
2023-07-08T04:49:48.974Z,17.33
2023-07-08T04:52:16.633Z,17.37
2023-07-08T04:54:44.229Z,17.40
2023-07-08T04:57:12.202Z,17.43
2023-07-08T04:59:39.912Z,17.46
2023-07-08T05:02:07.563Z,17.48
2023-07-08T05:04:35.275Z,17.52
2023-07-08T05:07:02.949Z,17.56
2023-07-08T05:09:33.133Z,17.60
2023-07-08T05:12:00.782Z,17.64
2023-07-08T05:14:28.462Z,17.68
2023-07-08T05:16:56.073Z,17.72
2023-07-08T05:19:24.301Z,17.78
2023-07-08T05:21:52.328Z,17.85
2023-07-08T05:24:19.966Z,17.94
2023-07-08T05:26:47.554Z,18.06
2023-07-08T05:29:15.220Z,18.21
2023-07-08T05:31:48.040Z,18.37
2023-07-08T05:34:16.533Z,18.52
2023-07-08T05:36:44.181Z,18.68
2023-07-08T05:39:11.881Z,18.86
2023-07-08T05:41:39.524Z,19.02
2023-07-08T05:44:07.140Z,19.18
2023-07-08T05:46:34.820Z,19.36
2023-07-08T05:49:02.540Z,19.54
2023-07-08T05:51:33.274Z,19.76
2023-07-08T05:54:02.173Z,19.96
2023-07-08T05:56:31.854Z,20.14
2023-07-08T05:59:00.430Z,20.33
2023-07-08T06:01:28.136Z,20.51
2023-07-08T06:03:59.372Z,20.66
2023-07-08T06:06:27.152Z,20.81
2023-07-08T06:08:54.747Z,20.95
2023-07-08T06:11:23.284Z,21.10
2023-07-08T06:13:51.258Z,21.25
2023-07-08T06:16:31.318Z,21.41
2023-07-08T06:19:06.946Z,21.59
2023-07-08T06:21:34.911Z,21.74
2023-07-08T06:24:02.530Z,21.86
2023-07-08T06:26:30.381Z,21.99
2023-07-08T06:28:58.010Z,22.14
2023-07-08T06:31:25.698Z,22.30
2023-07-08T06:33:54.018Z,22.47
2023-07-08T06:36:21.630Z,22.62
2023-07-08T06:38:49.264Z,22.79
2023-07-08T06:41:16.991Z,22.92
2023-07-08T06:43:44.644Z,23.09
2023-07-08T06:46:12.770Z,23.23
2023-07-08T06:48:40.492Z,23.37
2023-07-08T06:51:08.140Z,23.53
2023-07-08T06:53:35.759Z,23.67
2023-07-08T06:56:03.988Z,23.81
2023-07-08T06:58:31.996Z,23.94
2023-07-08T07:00:59.859Z,24.09
2023-07-08T07:03:27.735Z,24.23
2023-07-08T07:05:55.389Z,24.37
2023-07-08T07:08:22.996Z,24.51
2023-07-08T07:10:51.011Z,24.64
2023-07-08T07:13:18.676Z,24.79
2023-07-08T07:15:46.361Z,24.93
2023-07-08T07:18:16.672Z,25.05
2023-07-08T07:20:44.292Z,25.16
2023-07-08T07:23:12.381Z,25.29
2023-07-08T07:25:40.091Z,25.44
2023-07-08T07:28:08.186Z,25.57
2023-07-08T07:30:35.836Z,25.73
2023-07-08T07:33:03.555Z,25.90
2023-07-08T07:35:31.590Z,26.06
2023-07-08T07:37:59.592Z,26.24
2023-07-08T07:40:28.565Z,26.41
2023-07-08T07:42:56.345Z,26.58
2023-07-08T07:45:24.010Z,26.72
2023-07-08T07:47:52.085Z,26.85
2023-07-08T07:50:19.789Z,26.98
2023-07-08T07:52:48.108Z,27.10
2023-07-08T07:55:15.918Z,27.25
2023-07-08T07:57:46.972Z,27.38
2023-07-08T08:00:15.684Z,27.52
2023-07-08T08:02:43.747Z,27.67
2023-07-08T08:05:11.710Z,27.80
2023-07-08T08:07:39.389Z,27.91
2023-07-08T08:10:06.229Z,28.04
2023-07-08T08:12:44.343Z,28.17
2023-07-08T08:15:20.455Z,28.32
2023-07-08T08:17:50.584Z,28.47
2023-07-08T08:20:18.465Z,28.63
2023-07-08T08:22:47.088Z,28.76
2023-07-08T08:25:14.840Z,28.88
2023-07-08T08:27:42.601Z,29.01
2023-07-08T08:30:10.432Z,29.18
2023-07-08T08:32:38.244Z,29.35
2023-07-08T08:35:06.282Z,29.52
2023-07-08T08:37:34.216Z,29.68
2023-07-08T08:40:02.094Z,29.80
2023-07-08T08:42:29.782Z,29.94
2023-07-08T08:44:59.352Z,30.07
2023-07-08T08:47:27.061Z,30.17
2023-07-08T08:49:54.736Z,30.30
2023-07-08T08:52:22.808Z,30.42
2023-07-08T08:54:52.488Z,30.51
2023-07-08T08:57:20.279Z,30.58
2023-07-08T08:59:48.362Z,30.60
2023-07-08T09:02:16.252Z,30.62
2023-07-08T09:04:44.000Z,30.69
2023-07-08T09:07:12.194Z,30.80
2023-07-08T09:09:39.869Z,30.89
2023-07-08T09:12:07.782Z,31.00
2023-07-08T09:14:35.500Z,31.12
2023-07-08T09:17:03.433Z,31.16
2023-07-08T09:19:31.158Z,31.17
2023-07-08T09:21:59.073Z,31.12
2023-07-08T09:24:29.252Z,31.12
2023-07-08T09:26:58.170Z,31.23
2023-07-08T09:29:27.573Z,31.40
2023-07-08T09:31:55.397Z,31.55
2023-07-08T09:34:23.762Z,31.74
2023-07-08T09:36:51.904Z,31.78
2023-07-08T09:39:19.942Z,31.77
2023-07-08T09:41:56.682Z,31.76
2023-07-08T09:44:27.758Z,31.70
2023-07-08T09:46:56.068Z,31.63
2023-07-08T09:49:24.632Z,31.56
2023-07-08T09:51:52.789Z,31.48
2023-07-08T09:54:20.631Z,31.58
2023-07-08T09:56:48.514Z,31.72
2023-07-08T09:59:17.006Z,31.86
2023-07-08T10:01:44.862Z,32.07
2023-07-08T10:04:12.963Z,32.32
2023-07-08T10:06:40.875Z,32.64
2023-07-08T10:09:08.904Z,32.95
2023-07-08T10:11:37.879Z,33.15
2023-07-08T10:14:14.085Z,33.50
2023-07-08T10:16:43.721Z,33.86
2023-07-08T10:19:11.669Z,34.17
2023-07-08T10:21:39.943Z,34.50
2023-07-08T10:24:07.912Z,34.93
2023-07-08T10:26:36.734Z,35.29
2023-07-08T10:29:04.484Z,35.65
2023-07-08T10:31:32.787Z,35.92
2023-07-08T10:34:01.383Z,36.26
2023-07-08T10:36:29.189Z,36.60
2023-07-08T10:38:56.977Z,36.93
2023-07-08T10:41:25.452Z,37.21
2023-07-08T10:43:53.603Z,37.49
2023-07-08T10:46:21.949Z,37.76
2023-07-08T10:48:50.069Z,37.84
2023-07-08T10:51:18.139Z,37.78
2023-07-08T10:53:46.544Z,37.84
2023-07-08T10:56:14.766Z,37.98
2023-07-08T10:58:42.957Z,38.18
2023-07-08T11:01:10.946Z,38.32
2023-07-08T11:03:39.032Z,38.48
2023-07-08T11:06:07.204Z,38.68
2023-07-08T11:08:35.197Z,38.93
2023-07-08T11:11:14.885Z,39.27
2023-07-08T11:13:46.381Z,39.70
2023-07-08T11:16:14.531Z,39.90
2023-07-08T11:18:42.546Z,40.07
2023-07-08T11:21:10.993Z,40.26
2023-07-08T11:23:38.881Z,40.48
2023-07-08T11:26:06.714Z,40.67
2023-07-08T11:28:34.844Z,40.90
2023-07-08T11:31:03.125Z,40.89
2023-07-08T11:33:33.945Z,40.95
2023-07-08T11:36:03.597Z,41.08
2023-07-08T11:38:31.644Z,41.20
2023-07-08T11:41:01.438Z,41.40
2023-07-08T11:43:29.646Z,41.24
2023-07-08T11:45:57.832Z,41.08
2023-07-08T11:48:28.141Z,41.02
2023-07-08T11:50:56.261Z,41.14
2023-07-08T11:53:24.097Z,41.44
2023-07-08T11:55:52.192Z,41.74
2023-07-08T11:58:20.405Z,42.03
2023-07-08T12:00:48.366Z,42.24
2023-07-08T12:03:16.383Z,42.50
2023-07-08T12:05:44.313Z,42.81
2023-07-08T12:08:12.134Z,43.01
2023-07-08T12:10:41.631Z,43.24
2023-07-08T12:13:09.667Z,43.46
2023-07-08T12:15:37.608Z,43.59
2023-07-08T12:18:06.144Z,43.72
2023-07-08T12:20:34.837Z,43.84
2023-07-08T12:23:07.422Z,43.84
2023-07-08T12:25:36.264Z,43.90
2023-07-08T12:28:04.257Z,44.11
2023-07-08T12:30:32.440Z,44.23
2023-07-08T12:33:01.432Z,43.93
2023-07-08T12:35:31.144Z,43.54
2023-07-08T12:38:00.370Z,43.63
2023-07-08T12:40:28.356Z,43.89
2023-07-08T12:42:56.481Z,44.15
2023-07-08T12:45:24.375Z,44.33
2023-07-08T12:47:57.118Z,44.49
2023-07-08T12:50:25.295Z,44.44
2023-07-08T12:52:53.176Z,44.62
2023-07-08T12:55:22.300Z,44.87
2023-07-08T12:57:50.144Z,45.02
2023-07-08T13:00:18.728Z,44.98
2023-07-08T13:02:47.147Z,45.02
2023-07-08T13:05:15.266Z,44.99
2023-07-08T13:07:43.837Z,44.89
2023-07-08T13:10:11.658Z,44.69
2023-07-08T13:12:39.925Z,44.60
2023-07-08T13:15:09.370Z,44.51
2023-07-08T13:17:39.154Z,44.52
2023-07-08T13:20:07.517Z,44.37
2023-07-08T13:22:36.347Z,44.09
2023-07-08T13:25:04.932Z,43.67
2023-07-08T13:27:32.990Z,43.34
2023-07-08T13:30:00.777Z,42.96
2023-07-08T13:32:28.926Z,42.66
2023-07-08T13:34:56.860Z,42.30
2023-07-08T13:37:27.287Z,42.01
2023-07-08T13:39:55.301Z,41.81
2023-07-08T13:42:23.172Z,41.59
2023-07-08T13:44:52.518Z,41.40
2023-07-08T13:47:20.595Z,41.21
2023-07-08T13:49:48.766Z,41.12
2023-07-08T13:52:16.692Z,41.12
2023-07-08T13:54:44.617Z,41.16
2023-07-08T13:57:12.618Z,40.37
2023-07-08T13:59:40.547Z,39.88
2023-07-08T14:02:08.987Z,39.88
2023-07-08T14:04:37.164Z,39.91
2023-07-08T14:07:05.567Z,39.91
2023-07-08T14:09:33.984Z,40.14
2023-07-08T14:12:01.888Z,40.37
2023-07-08T14:14:30.149Z,40.50
2023-07-08T14:16:58.379Z,40.59
2023-07-08T14:19:26.336Z,40.78
2023-07-08T14:21:54.398Z,41.05
2023-07-08T14:24:22.342Z,41.52
2023-07-08T14:26:50.521Z,41.95
2023-07-08T14:29:18.729Z,41.64
2023-07-08T14:31:46.651Z,41.30
2023-07-08T14:34:14.850Z,41.40
2023-07-08T14:36:42.820Z,40.99
2023-07-08T14:39:10.955Z,41.31
2023-07-08T14:41:38.953Z,42.02
2023-07-08T14:44:06.844Z,43.00
2023-07-08T14:46:35.267Z,43.86
2023-07-08T14:49:03.268Z,44.54
2023-07-08T14:51:34.704Z,45.11
2023-07-08T14:54:02.748Z,44.59
2023-07-08T14:56:30.681Z,43.69
2023-07-08T14:58:58.580Z,43.55
2023-07-08T15:01:29.226Z,43.66
2023-07-08T15:03:57.649Z,43.94
2023-07-08T15:06:25.515Z,43.93
2023-07-08T15:08:53.540Z,44.09
2023-07-08T15:11:21.743Z,44.38
2023-07-08T15:13:50.030Z,43.64
2023-07-08T15:16:18.252Z,42.95
2023-07-08T15:18:46.386Z,43.60
2023-07-08T15:21:14.448Z,44.47
2023-07-08T15:23:42.556Z,45.21
2023-07-08T15:26:12.824Z,45.48
2023-07-08T15:28:41.762Z,44.13
2023-07-08T15:31:09.703Z,42.55
2023-07-08T15:33:37.570Z,41.30
2023-07-08T15:36:07.156Z,41.22
2023-07-08T15:38:34.969Z,42.05
2023-07-08T15:41:03.244Z,41.97
2023-07-08T15:43:31.138Z,42.09
2023-07-08T15:45:59.007Z,42.47
2023-07-08T15:48:27.305Z,42.31
2023-07-08T15:50:55.338Z,41.41
2023-07-08T15:53:23.295Z,40.82
2023-07-08T15:55:51.085Z,40.34
2023-07-08T15:58:18.955Z,40.05
2023-07-08T16:00:46.990Z,40.06
2023-07-08T16:03:15.149Z,40.85
2023-07-08T16:05:43.692Z,41.76
2023-07-08T16:08:11.648Z,42.52
2023-07-08T16:10:39.895Z,42.17
2023-07-08T16:13:08.562Z,41.09
2023-07-08T16:15:36.559Z,40.17
2023-07-08T16:18:04.786Z,39.86
2023-07-08T16:20:33.709Z,39.25
2023-07-08T16:23:02.875Z,38.49
2023-07-08T16:25:31.032Z,37.79
2023-07-08T16:27:58.871Z,37.11
2023-07-08T16:30:27.344Z,36.50
2023-07-08T16:32:55.272Z,36.05
2023-07-08T16:35:23.238Z,35.79
2023-07-08T16:37:51.307Z,35.54
2023-07-08T16:40:19.124Z,35.28
2023-07-08T16:42:47.647Z,35.02
2023-07-08T16:45:15.650Z,34.75
2023-07-08T16:47:43.714Z,34.53
2023-07-08T16:50:11.884Z,34.31
2023-07-08T16:52:39.782Z,34.09
2023-07-08T16:55:08.244Z,33.87
2023-07-08T16:57:36.103Z,33.68
2023-07-08T17:00:04.636Z,33.51
2023-07-08T17:02:33.999Z,33.38
2023-07-08T17:05:04.102Z,33.27
2023-07-08T17:07:34.806Z,33.18
2023-07-08T17:10:02.635Z,33.12
2023-07-08T17:12:30.462Z,33.04
2023-07-08T17:14:59.111Z,32.96
2023-07-08T17:17:26.983Z,32.85
2023-07-08T17:19:55.157Z,32.78
2023-07-08T17:22:23.100Z,32.73
2023-07-08T17:24:51.009Z,32.71
2023-07-08T17:27:19.138Z,32.69
2023-07-08T17:29:47.115Z,32.64
2023-07-08T17:32:14.970Z,32.54
2023-07-08T17:34:42.891Z,32.41
2023-07-08T17:37:10.776Z,32.29
2023-07-08T17:39:39.046Z,32.17
2023-07-08T17:42:07.042Z,32.05
2023-07-08T17:44:35.160Z,31.95
2023-07-08T17:47:03.287Z,31.87
2023-07-08T17:49:32.204Z,31.78
2023-07-08T17:52:00.249Z,31.72
2023-07-08T17:54:32.090Z,31.67
2023-07-08T17:57:02.121Z,31.62
2023-07-08T17:59:31.073Z,31.54
2023-07-08T18:01:59.026Z,31.46
2023-07-08T18:04:28.161Z,31.37
2023-07-08T18:06:56.045Z,31.29
2023-07-08T18:09:24.823Z,31.18
2023-07-08T18:11:52.832Z,31.10
2023-07-08T18:14:20.704Z,31.01
2023-07-08T18:16:48.519Z,30.94
2023-07-08T18:19:16.461Z,30.90
2023-07-08T18:21:44.859Z,30.85
2023-07-08T18:24:13.234Z,30.84
2023-07-08T18:26:41.142Z,30.81
2023-07-08T18:29:09.265Z,30.80
2023-07-08T18:31:37.548Z,30.77
2023-07-08T18:34:06.943Z,30.72
2023-07-08T18:36:34.786Z,30.66
2023-07-08T18:39:02.725Z,30.59
2023-07-08T18:41:30.847Z,30.52
2023-07-08T18:43:58.745Z,30.43
2023-07-08T18:46:27.088Z,30.37
2023-07-08T18:48:55.054Z,30.28
2023-07-08T18:51:22.925Z,30.21
2023-07-08T18:53:50.754Z,30.14
2023-07-08T18:56:18.690Z,30.06
2023-07-08T18:58:46.929Z,29.99
2023-07-08T19:01:14.939Z,29.89
2023-07-08T19:03:42.753Z,29.80
2023-07-08T19:06:10.672Z,29.68
2023-07-08T19:08:38.465Z,29.55
2023-07-08T19:11:06.670Z,29.43
2023-07-08T19:13:35.064Z,29.29
2023-07-08T19:16:03.101Z,29.16
2023-07-08T19:18:31.274Z,29.00
2023-07-08T19:20:59.019Z,28.87
2023-07-08T19:23:27.413Z,28.75
2023-07-08T19:25:56.783Z,28.62
2023-07-08T19:28:24.599Z,28.48
2023-07-08T19:30:53.050Z,28.38
2023-07-08T19:33:22.978Z,28.31
2023-07-08T19:35:51.693Z,28.24
2023-07-08T19:38:21.892Z,28.18
2023-07-08T19:40:51.558Z,28.10
2023-07-08T19:43:19.850Z,28.04
2023-07-08T19:45:47.772Z,27.96
2023-07-08T19:48:15.801Z,27.88
2023-07-08T19:50:43.768Z,27.77
2023-07-08T19:53:11.713Z,27.67
2023-07-08T19:55:39.685Z,27.58
2023-07-08T19:58:07.725Z,27.49
2023-07-08T20:00:35.957Z,27.38
2023-07-08T20:03:04.524Z,27.29
2023-07-08T20:05:32.374Z,27.22
2023-07-08T20:08:00.246Z,27.16
2023-07-08T20:10:28.192Z,27.09
2023-07-08T20:12:58.350Z,27.04
2023-07-08T20:15:26.380Z,26.99
2023-07-08T20:17:54.548Z,26.94
2023-07-08T20:20:24.302Z,26.89
2023-07-08T20:22:52.036Z,26.83
2023-07-08T20:25:20.450Z,26.76
2023-07-08T20:27:48.281Z,26.70
2023-07-08T20:30:16.306Z,26.66
2023-07-08T20:32:44.195Z,26.61
2023-07-08T20:35:11.968Z,26.56
2023-07-08T20:37:40.405Z,26.50
2023-07-08T20:40:08.738Z,26.45
2023-07-08T20:42:37.045Z,26.41
2023-07-08T20:45:05.105Z,26.33
2023-07-08T20:47:33.069Z,26.26
2023-07-08T20:50:03.944Z,26.17
2023-07-08T20:52:31.911Z,26.07
2023-07-08T20:54:59.913Z,25.96
2023-07-08T20:57:28.243Z,25.86
2023-07-08T20:59:56.006Z,25.76
2023-07-08T21:02:24.951Z,25.69
2023-07-08T21:04:53.354Z,25.60
2023-07-08T21:07:21.271Z,25.54
2023-07-08T21:09:49.344Z,25.46
2023-07-08T21:12:17.149Z,25.38
2023-07-08T21:14:45.508Z,25.32
2023-07-08T21:17:13.524Z,25.25
2023-07-08T21:19:41.375Z,25.19
2023-07-08T21:22:09.248Z,25.15
2023-07-08T21:24:37.266Z,25.11
2023-07-08T21:27:05.756Z,25.09
2023-07-08T21:29:33.558Z,25.03
2023-07-08T21:32:01.600Z,24.99
2023-07-08T21:34:29.575Z,24.94
2023-07-08T21:36:57.454Z,24.88
2023-07-08T21:39:25.562Z,24.84
2023-07-08T21:41:53.535Z,24.79
2023-07-08T21:44:21.348Z,24.79
2023-07-08T21:46:49.297Z,24.80
2023-07-08T21:49:17.364Z,24.80
2023-07-08T21:51:45.692Z,24.78
2023-07-08T21:54:13.665Z,24.75
2023-07-08T21:56:41.505Z,24.71
2023-07-08T21:59:09.329Z,24.67
2023-07-08T22:01:37.296Z,24.62
2023-07-08T22:04:05.272Z,24.57
2023-07-08T22:06:34.078Z,24.53
2023-07-08T22:09:02.351Z,24.50
2023-07-08T22:11:30.144Z,24.47
2023-07-08T22:13:59.847Z,24.44
2023-07-08T22:16:28.192Z,24.40
2023-07-08T22:18:56.290Z,24.35
2023-07-08T22:21:29.574Z,24.30
2023-07-08T22:23:58.385Z,24.26
2023-07-08T22:26:26.154Z,24.23
2023-07-08T22:28:54.233Z,24.19
2023-07-08T22:31:22.644Z,24.17
2023-07-08T22:33:50.427Z,24.15
2023-07-08T22:36:18.444Z,24.12
2023-07-08T22:38:46.186Z,24.11
2023-07-08T22:41:14.563Z,24.08
2023-07-08T22:43:42.459Z,24.08
2023-07-08T22:46:10.294Z,24.05
2023-07-08T22:48:38.412Z,24.03
2023-07-08T22:51:06.204Z,23.99
2023-07-08T22:53:33.940Z,23.94
2023-07-08T22:56:02.115Z,23.88
2023-07-08T22:58:30.069Z,23.86
2023-07-08T23:00:57.857Z,23.81
2023-07-08T23:03:25.804Z,23.79
2023-07-08T23:05:53.618Z,23.76
2023-07-08T23:08:21.302Z,23.74
2023-07-08T23:10:49.226Z,23.71
2023-07-08T23:13:16.921Z,23.68
2023-07-08T23:15:45.855Z,23.65
2023-07-08T23:18:13.864Z,23.60
2023-07-08T23:20:41.678Z,23.55
2023-07-08T23:23:09.510Z,23.51
2023-07-08T23:25:37.472Z,23.47
2023-07-08T23:28:05.211Z,23.42
2023-07-08T23:30:33.291Z,23.38
2023-07-08T23:33:01.011Z,23.35
2023-07-08T23:35:28.675Z,23.29
2023-07-08T23:37:58.453Z,23.28
2023-07-08T23:40:26.045Z,23.25
2023-07-08T23:42:54.544Z,23.22
2023-07-08T23:45:22.196Z,23.20
2023-07-08T23:47:49.850Z,23.15
2023-07-08T23:50:17.532Z,23.11
2023-07-08T23:52:45.461Z,23.08
2023-07-08T23:55:14.224Z,23.05
2023-07-08T23:57:41.995Z,23.00
